sensor_id;sensor_type;location;lat;lon;timestamp;P1;durP1;ratioP1;P2;durP2;ratioP2
16922;SDS011;8578;50.938;13.556;2022-09-13T00:01:39;3.60;;;2.70;;
16922;SDS011;8578;50.938;13.556;2022-09-13T00:04:07;5.20;;;3.07;;
16922;SDS011;8578;50.938;13.556;2022-09-13T00:06:34;4.67;;;2.90;;
16922;SDS011;8578;50.938;13.556;2022-09-13T00:09:02;4.30;;;2.70;;
16922;SDS011;8578;50.938;13.556;2022-09-13T00:11:29;3.90;;;2.87;;
16922;SDS011;8578;50.938;13.556;2022-09-13T00:13:57;4.37;;;3.07;;
16922;SDS011;8578;50.938;13.556;2022-09-13T00:16:25;5.77;;;2.93;;
16922;SDS011;8578;50.938;13.556;2022-09-13T00:18:54;5.60;;;2.90;;
16922;SDS011;8578;50.938;13.556;2022-09-13T00:21:22;4.20;;;3.13;;
16922;SDS011;8578;50.938;13.556;2022-09-13T00:23:50;4.67;;;2.80;;
16922;SDS011;8578;50.938;13.556;2022-09-13T00:26:19;5.90;;;2.80;;
16922;SDS011;8578;50.938;13.556;2022-09-13T00:28:47;5.07;;;3.07;;
16922;SDS011;8578;50.938;13.556;2022-09-13T00:31:16;4.73;;;2.77;;
16922;SDS011;8578;50.938;13.556;2022-09-13T00:33:44;5.17;;;2.93;;
16922;SDS011;8578;50.938;13.556;2022-09-13T00:36:13;3.80;;;3.33;;
16922;SDS011;8578;50.938;13.556;2022-09-13T00:38:41;3.20;;;2.90;;
16922;SDS011;8578;50.938;13.556;2022-09-13T00:41:11;4.30;;;3.23;;
16922;SDS011;8578;50.938;13.556;2022-09-13T00:43:40;3.97;;;3.10;;
16922;SDS011;8578;50.938;13.556;2022-09-13T00:46:08;9.33;;;3.10;;
16922;SDS011;8578;50.938;13.556;2022-09-13T00:48:36;4.57;;;3.20;;
16922;SDS011;8578;50.938;13.556;2022-09-13T00:51:03;5.57;;;3.00;;
16922;SDS011;8578;50.938;13.556;2022-09-13T00:53:34;4.33;;;3.30;;
16922;SDS011;8578;50.938;13.556;2022-09-13T00:56:04;3.57;;;2.70;;
16922;SDS011;8578;50.938;13.556;2022-09-13T00:58:36;4.90;;;3.43;;
16922;SDS011;8578;50.938;13.556;2022-09-13T01:01:05;4.50;;;3.33;;
16922;SDS011;8578;50.938;13.556;2022-09-13T01:03:35;4.87;;;3.07;;
16922;SDS011;8578;50.938;13.556;2022-09-13T01:06:03;4.97;;;3.30;;
16922;SDS011;8578;50.938;13.556;2022-09-13T01:08:34;5.10;;;3.57;;
16922;SDS011;8578;50.938;13.556;2022-09-13T01:11:03;5.77;;;2.83;;
16922;SDS011;8578;50.938;13.556;2022-09-13T01:13:32;4.20;;;3.40;;
16922;SDS011;8578;50.938;13.556;2022-09-13T01:16:01;6.33;;;3.63;;
16922;SDS011;8578;50.938;13.556;2022-09-13T01:18:28;6.13;;;3.77;;
16922;SDS011;8578;50.938;13.556;2022-09-13T01:24:02;4.67;;;3.40;;
16922;SDS011;8578;50.938;13.556;2022-09-13T01:26:48;4.87;;;3.33;;
16922;SDS011;8578;50.938;13.556;2022-09-13T01:29:25;5.27;;;3.80;;
16922;SDS011;8578;50.938;13.556;2022-09-13T01:32:00;7.33;;;3.93;;
16922;SDS011;8578;50.938;13.556;2022-09-13T01:34:33;6.37;;;3.23;;
16922;SDS011;8578;50.938;13.556;2022-09-13T01:37:14;4.47;;;3.80;;
16922;SDS011;8578;50.938;13.556;2022-09-13T01:39:54;4.47;;;3.03;;
16922;SDS011;8578;50.938;13.556;2022-09-13T01:42:27;5.93;;;3.90;;
16922;SDS011;8578;50.938;13.556;2022-09-13T01:45:01;5.17;;;3.50;;
16922;SDS011;8578;50.938;13.556;2022-09-13T01:47:32;5.47;;;3.47;;
16922;SDS011;8578;50.938;13.556;2022-09-13T01:50:03;7.57;;;3.57;;
16922;SDS011;8578;50.938;13.556;2022-09-13T01:52:35;8.47;;;3.33;;
16922;SDS011;8578;50.938;13.556;2022-09-13T01:55:08;4.63;;;3.23;;
16922;SDS011;8578;50.938;13.556;2022-09-13T01:57:40;4.87;;;3.17;;
16922;SDS011;8578;50.938;13.556;2022-09-13T02:00:10;7.33;;;3.07;;
16922;SDS011;8578;50.938;13.556;2022-09-13T02:02:40;4.17;;;3.30;;
16922;SDS011;8578;50.938;13.556;2022-09-13T02:05:11;4.90;;;3.30;;
16922;SDS011;8578;50.938;13.556;2022-09-13T02:07:40;3.90;;;3.30;;
16922;SDS011;8578;50.938;13.556;2022-09-13T02:10:09;5.13;;;3.50;;
16922;SDS011;8578;50.938;13.556;2022-09-13T02:12:38;4.53;;;3.37;;
16922;SDS011;8578;50.938;13.556;2022-09-13T02:15:09;5.17;;;3.90;;
16922;SDS011;8578;50.938;13.556;2022-09-13T02:17:41;5.40;;;3.37;;
16922;SDS011;8578;50.938;13.556;2022-09-13T02:20:11;5.43;;;3.47;;
16922;SDS011;8578;50.938;13.556;2022-09-13T02:22:40;4.40;;;3.40;;
16922;SDS011;8578;50.938;13.556;2022-09-13T02:25:11;5.33;;;3.60;;
16922;SDS011;8578;50.938;13.556;2022-09-13T02:27:40;5.17;;;3.37;;
16922;SDS011;8578;50.938;13.556;2022-09-13T02:30:10;3.93;;;2.93;;
16922;SDS011;8578;50.938;13.556;2022-09-13T02:32:41;4.07;;;3.23;;
16922;SDS011;8578;50.938;13.556;2022-09-13T02:35:10;5.50;;;3.20;;
16922;SDS011;8578;50.938;13.556;2022-09-13T02:37:41;4.97;;;3.20;;
16922;SDS011;8578;50.938;13.556;2022-09-13T02:40:12;5.77;;;3.40;;
16922;SDS011;8578;50.938;13.556;2022-09-13T02:42:43;6.20;;;3.63;;
16922;SDS011;8578;50.938;13.556;2022-09-13T02:45:12;5.70;;;3.50;;
16922;SDS011;8578;50.938;13.556;2022-09-13T02:47:42;5.03;;;3.70;;
16922;SDS011;8578;50.938;13.556;2022-09-13T02:50:20;4.97;;;3.50;;
16922;SDS011;8578;50.938;13.556;2022-09-13T02:52:52;7.23;;;3.60;;
16922;SDS011;8578;50.938;13.556;2022-09-13T02:55:24;5.80;;;3.70;;
16922;SDS011;8578;50.938;13.556;2022-09-13T02:57:56;6.03;;;3.50;;
16922;SDS011;8578;50.938;13.556;2022-09-13T03:00:26;5.27;;;3.40;;
16922;SDS011;8578;50.938;13.556;2022-09-13T03:02:55;4.10;;;3.47;;
16922;SDS011;8578;50.938;13.556;2022-09-13T03:05:23;8.73;;;3.40;;
16922;SDS011;8578;50.938;13.556;2022-09-13T03:07:50;4.93;;;3.40;;
16922;SDS011;8578;50.938;13.556;2022-09-13T03:10:18;4.33;;;3.00;;
16922;SDS011;8578;50.938;13.556;2022-09-13T03:12:50;3.87;;;3.00;;
16922;SDS011;8578;50.938;13.556;2022-09-13T03:15:23;6.10;;;3.30;;
16922;SDS011;8578;50.938;13.556;2022-09-13T03:17:59;5.07;;;3.30;;
16922;SDS011;8578;50.938;13.556;2022-09-13T03:20:35;4.13;;;2.90;;
16922;SDS011;8578;50.938;13.556;2022-09-13T03:23:18;4.80;;;3.40;;
16922;SDS011;8578;50.938;13.556;2022-09-13T03:25:59;4.87;;;3.10;;
16922;SDS011;8578;50.938;13.556;2022-09-13T03:28:30;5.37;;;3.07;;
16922;SDS011;8578;50.938;13.556;2022-09-13T03:31:01;3.70;;;3.00;;
16922;SDS011;8578;50.938;13.556;2022-09-13T03:33:34;5.00;;;3.17;;
16922;SDS011;8578;50.938;13.556;2022-09-13T03:36:05;5.97;;;3.17;;
16922;SDS011;8578;50.938;13.556;2022-09-13T03:38:37;4.40;;;3.10;;
16922;SDS011;8578;50.938;13.556;2022-09-13T03:41:06;3.37;;;2.60;;
16922;SDS011;8578;50.938;13.556;2022-09-13T03:43:36;5.67;;;3.37;;
16922;SDS011;8578;50.938;13.556;2022-09-13T03:46:05;5.30;;;3.10;;
16922;SDS011;8578;50.938;13.556;2022-09-13T03:48:36;4.17;;;3.00;;
16922;SDS011;8578;50.938;13.556;2022-09-13T03:51:05;4.87;;;3.30;;
16922;SDS011;8578;50.938;13.556;2022-09-13T03:53:34;4.07;;;2.97;;
16922;SDS011;8578;50.938;13.556;2022-09-13T03:56:10;8.00;;;3.53;;
16922;SDS011;8578;50.938;13.556;2022-09-13T03:58:38;4.37;;;2.70;;
16922;SDS011;8578;50.938;13.556;2022-09-13T04:01:05;5.10;;;2.90;;
16922;SDS011;8578;50.938;13.556;2022-09-13T04:03:32;3.70;;;2.70;;
16922;SDS011;8578;50.938;13.556;2022-09-13T04:06:01;5.30;;;3.03;;
16922;SDS011;8578;50.938;13.556;2022-09-13T04:08:29;4.40;;;3.23;;
16922;SDS011;8578;50.938;13.556;2022-09-13T04:10:56;5.67;;;3.23;;
16922;SDS011;8578;50.938;13.556;2022-09-13T04:13:23;5.93;;;3.10;;
16922;SDS011;8578;50.938;13.556;2022-09-13T04:15:52;3.90;;;2.97;;
16922;SDS011;8578;50.938;13.556;2022-09-13T04:18:19;4.50;;;3.37;;
16922;SDS011;8578;50.938;13.556;2022-09-13T04:20:52;6.67;;;3.40;;
16922;SDS011;8578;50.938;13.556;2022-09-13T04:23:21;5.77;;;3.77;;
16922;SDS011;8578;50.938;13.556;2022-09-13T04:25:49;4.27;;;3.23;;
16922;SDS011;8578;50.938;13.556;2022-09-13T04:28:17;4.40;;;3.10;;
16922;SDS011;8578;50.938;13.556;2022-09-13T04:30:44;5.93;;;3.47;;
16922;SDS011;8578;50.938;13.556;2022-09-13T04:33:12;5.03;;;3.67;;
16922;SDS011;8578;50.938;13.556;2022-09-13T04:35:39;5.43;;;3.63;;
16922;SDS011;8578;50.938;13.556;2022-09-13T04:38:07;4.63;;;3.57;;
16922;SDS011;8578;50.938;13.556;2022-09-13T04:40:36;5.03;;;3.60;;
16922;SDS011;8578;50.938;13.556;2022-09-13T04:43:04;7.40;;;3.73;;
16922;SDS011;8578;50.938;13.556;2022-09-13T04:45:31;4.83;;;3.40;;
16922;SDS011;8578;50.938;13.556;2022-09-13T04:47:59;5.17;;;3.50;;
16922;SDS011;8578;50.938;13.556;2022-09-13T04:50:26;9.20;;;3.77;;
16922;SDS011;8578;50.938;13.556;2022-09-13T04:52:53;4.50;;;3.40;;
16922;SDS011;8578;50.938;13.556;2022-09-13T04:55:21;5.70;;;3.70;;
16922;SDS011;8578;50.938;13.556;2022-09-13T04:57:53;5.13;;;3.93;;
16922;SDS011;8578;50.938;13.556;2022-09-13T05:00:21;5.97;;;3.63;;
16922;SDS011;8578;50.938;13.556;2022-09-13T05:02:53;5.47;;;3.90;;
16922;SDS011;8578;50.938;13.556;2022-09-13T05:05:20;7.50;;;4.07;;
16922;SDS011;8578;50.938;13.556;2022-09-13T05:07:48;6.33;;;3.57;;
16922;SDS011;8578;50.938;13.556;2022-09-13T05:10:16;5.63;;;4.30;;
16922;SDS011;8578;50.938;13.556;2022-09-13T05:12:45;6.43;;;4.40;;
16922;SDS011;8578;50.938;13.556;2022-09-13T05:15:13;5.30;;;3.70;;
16922;SDS011;8578;50.938;13.556;2022-09-13T05:17:41;6.53;;;4.13;;
16922;SDS011;8578;50.938;13.556;2022-09-13T05:20:09;8.53;;;4.30;;
16922;SDS011;8578;50.938;13.556;2022-09-13T05:22:36;6.87;;;4.43;;
16922;SDS011;8578;50.938;13.556;2022-09-13T05:25:04;5.90;;;3.97;;
16922;SDS011;8578;50.938;13.556;2022-09-13T05:27:32;5.87;;;4.17;;
16922;SDS011;8578;50.938;13.556;2022-09-13T05:29:59;6.50;;;4.50;;
16922;SDS011;8578;50.938;13.556;2022-09-13T05:32:28;7.80;;;4.23;;
16922;SDS011;8578;50.938;13.556;2022-09-13T05:34:56;5.60;;;4.23;;
16922;SDS011;8578;50.938;13.556;2022-09-13T05:37:24;8.33;;;5.43;;
16922;SDS011;8578;50.938;13.556;2022-09-13T05:39:51;9.93;;;5.37;;
16922;SDS011;8578;50.938;13.556;2022-09-13T05:42:37;6.33;;;4.27;;
16922;SDS011;8578;50.938;13.556;2022-09-13T05:45:04;6.50;;;4.70;;
16922;SDS011;8578;50.938;13.556;2022-09-13T05:47:33;6.93;;;4.60;;
16922;SDS011;8578;50.938;13.556;2022-09-13T05:50:01;6.37;;;4.73;;
16922;SDS011;8578;50.938;13.556;2022-09-13T05:52:50;7.17;;;4.70;;
16922;SDS011;8578;50.938;13.556;2022-09-13T05:55:18;7.90;;;5.00;;
16922;SDS011;8578;50.938;13.556;2022-09-13T05:57:46;6.57;;;4.30;;
16922;SDS011;8578;50.938;13.556;2022-09-13T06:00:14;5.53;;;4.30;;
16922;SDS011;8578;50.938;13.556;2022-09-13T06:02:44;6.90;;;4.83;;
16922;SDS011;8578;50.938;13.556;2022-09-13T06:05:11;7.83;;;4.37;;
16922;SDS011;8578;50.938;13.556;2022-09-13T06:07:40;8.17;;;4.47;;
16922;SDS011;8578;50.938;13.556;2022-09-13T06:10:08;6.23;;;4.40;;
16922;SDS011;8578;50.938;13.556;2022-09-13T06:12:35;6.17;;;4.90;;
16922;SDS011;8578;50.938;13.556;2022-09-13T06:15:03;7.23;;;4.80;;
16922;SDS011;8578;50.938;13.556;2022-09-13T06:17:31;7.47;;;5.23;;
16922;SDS011;8578;50.938;13.556;2022-09-13T06:19:59;6.27;;;3.80;;
16922;SDS011;8578;50.938;13.556;2022-09-13T06:22:27;5.73;;;4.10;;
16922;SDS011;8578;50.938;13.556;2022-09-13T06:24:58;6.23;;;4.10;;
16922;SDS011;8578;50.938;13.556;2022-09-13T06:27:25;6.57;;;4.10;;
16922;SDS011;8578;50.938;13.556;2022-09-13T06:29:53;6.67;;;4.57;;
16922;SDS011;8578;50.938;13.556;2022-09-13T06:32:20;5.27;;;4.10;;
16922;SDS011;8578;50.938;13.556;2022-09-13T06:34:48;5.07;;;4.40;;
16922;SDS011;8578;50.938;13.556;2022-09-13T06:37:16;4.33;;;3.53;;
16922;SDS011;8578;50.938;13.556;2022-09-13T06:39:44;4.63;;;3.73;;
16922;SDS011;8578;50.938;13.556;2022-09-13T06:42:11;5.97;;;3.70;;
16922;SDS011;8578;50.938;13.556;2022-09-13T06:44:39;5.27;;;4.00;;
16922;SDS011;8578;50.938;13.556;2022-09-13T06:47:06;6.30;;;3.73;;
16922;SDS011;8578;50.938;13.556;2022-09-13T06:49:34;5.67;;;3.90;;
16922;SDS011;8578;50.938;13.556;2022-09-13T06:52:01;4.33;;;3.77;;
16922;SDS011;8578;50.938;13.556;2022-09-13T06:54:30;5.27;;;3.93;;
16922;SDS011;8578;50.938;13.556;2022-09-13T06:56:58;4.90;;;4.07;;
16922;SDS011;8578;50.938;13.556;2022-09-13T06:59:28;5.87;;;4.00;;
16922;SDS011;8578;50.938;13.556;2022-09-13T07:01:55;4.23;;;3.57;;
16922;SDS011;8578;50.938;13.556;2022-09-13T07:04:23;5.30;;;3.90;;
16922;SDS011;8578;50.938;13.556;2022-09-13T07:06:50;7.33;;;3.73;;
16922;SDS011;8578;50.938;13.556;2022-09-13T07:09:19;3.37;;;3.07;;
16922;SDS011;8578;50.938;13.556;2022-09-13T07:11:49;4.90;;;3.53;;
16922;SDS011;8578;50.938;13.556;2022-09-13T07:14:18;4.00;;;3.13;;
16922;SDS011;8578;50.938;13.556;2022-09-13T07:16:46;3.57;;;3.00;;
16922;SDS011;8578;50.938;13.556;2022-09-13T07:19:14;4.30;;;3.13;;
16922;SDS011;8578;50.938;13.556;2022-09-13T07:21:41;3.20;;;2.70;;
16922;SDS011;8578;50.938;13.556;2022-09-13T07:24:09;4.57;;;3.00;;
16922;SDS011;8578;50.938;13.556;2022-09-13T07:26:37;3.20;;;2.80;;
16922;SDS011;8578;50.938;13.556;2022-09-13T07:29:07;4.10;;;3.13;;
16922;SDS011;8578;50.938;13.556;2022-09-13T07:31:35;3.97;;;2.90;;
16922;SDS011;8578;50.938;13.556;2022-09-13T07:34:04;3.20;;;2.70;;
16922;SDS011;8578;50.938;13.556;2022-09-13T07:36:32;5.67;;;2.70;;
16922;SDS011;8578;50.938;13.556;2022-09-13T07:39:00;4.77;;;2.77;;
16922;SDS011;8578;50.938;13.556;2022-09-13T07:41:28;3.20;;;2.70;;
16922;SDS011;8578;50.938;13.556;2022-09-13T07:43:56;4.73;;;2.97;;
16922;SDS011;8578;50.938;13.556;2022-09-13T07:46:25;4.33;;;3.07;;
16922;SDS011;8578;50.938;13.556;2022-09-13T07:48:53;4.20;;;2.97;;
16922;SDS011;8578;50.938;13.556;2022-09-13T07:51:22;3.70;;;2.90;;
16922;SDS011;8578;50.938;13.556;2022-09-13T07:53:50;5.60;;;2.90;;
16922;SDS011;8578;50.938;13.556;2022-09-13T07:56:23;4.00;;;2.73;;
16922;SDS011;8578;50.938;13.556;2022-09-13T07:58:51;3.63;;;2.80;;
16922;SDS011;8578;50.938;13.556;2022-09-13T08:01:20;3.50;;;2.83;;
16922;SDS011;8578;50.938;13.556;2022-09-13T08:03:53;6.13;;;3.10;;
16922;SDS011;8578;50.938;13.556;2022-09-13T08:06:21;5.23;;;2.80;;
16922;SDS011;8578;50.938;13.556;2022-09-13T08:08:48;3.57;;;3.03;;
16922;SDS011;8578;50.938;13.556;2022-09-13T08:11:18;3.20;;;2.90;;
16922;SDS011;8578;50.938;13.556;2022-09-13T08:13:46;3.60;;;3.00;;
16922;SDS011;8578;50.938;13.556;2022-09-13T08:16:14;5.23;;;3.23;;
16922;SDS011;8578;50.938;13.556;2022-09-13T08:18:43;4.27;;;2.87;;
16922;SDS011;8578;50.938;13.556;2022-09-13T08:21:13;3.57;;;3.00;;
16922;SDS011;8578;50.938;13.556;2022-09-13T08:23:40;4.20;;;2.90;;
16922;SDS011;8578;50.938;13.556;2022-09-13T08:26:08;5.47;;;2.87;;
16922;SDS011;8578;50.938;13.556;2022-09-13T08:28:36;3.50;;;2.93;;
16922;SDS011;8578;50.938;13.556;2022-09-13T08:31:05;5.90;;;3.10;;
16922;SDS011;8578;50.938;13.556;2022-09-13T08:33:33;4.93;;;3.70;;
16922;SDS011;8578;50.938;13.556;2022-09-13T08:36:02;4.53;;;3.63;;
16922;SDS011;8578;50.938;13.556;2022-09-13T08:38:31;4.53;;;3.53;;
16922;SDS011;8578;50.938;13.556;2022-09-13T08:40:59;3.73;;;3.13;;
16922;SDS011;8578;50.938;13.556;2022-09-13T08:43:33;3.47;;;3.00;;
16922;SDS011;8578;50.938;13.556;2022-09-13T08:46:05;3.83;;;3.13;;
16922;SDS011;8578;50.938;13.556;2022-09-13T08:48:36;6.20;;;3.50;;
16922;SDS011;8578;50.938;13.556;2022-09-13T08:51:05;3.97;;;3.20;;
16922;SDS011;8578;50.938;13.556;2022-09-13T08:53:37;7.20;;;3.40;;
16922;SDS011;8578;50.938;13.556;2022-09-13T08:56:07;3.60;;;2.90;;
16922;SDS011;8578;50.938;13.556;2022-09-13T08:58:38;4.07;;;3.27;;
16922;SDS011;8578;50.938;13.556;2022-09-13T09:01:12;3.70;;;2.97;;
16922;SDS011;8578;50.938;13.556;2022-09-13T09:03:47;4.83;;;3.17;;
16922;SDS011;8578;50.938;13.556;2022-09-13T09:06:19;5.97;;;3.07;;
16922;SDS011;8578;50.938;13.556;2022-09-13T09:08:50;5.50;;;3.30;;
16922;SDS011;8578;50.938;13.556;2022-09-13T09:11:20;3.43;;;3.03;;
16922;SDS011;8578;50.938;13.556;2022-09-13T09:13:49;3.20;;;2.70;;
16922;SDS011;8578;50.938;13.556;2022-09-13T09:16:24;3.93;;;3.00;;
16922;SDS011;8578;50.938;13.556;2022-09-13T09:18:53;4.70;;;3.00;;
16922;SDS011;8578;50.938;13.556;2022-09-13T09:21:21;4.67;;;3.30;;
16922;SDS011;8578;50.938;13.556;2022-09-13T09:23:51;3.30;;;2.70;;
16922;SDS011;8578;50.938;13.556;2022-09-13T09:26:19;4.57;;;3.07;;
16922;SDS011;8578;50.938;13.556;2022-09-13T09:28:48;3.93;;;2.97;;
16922;SDS011;8578;50.938;13.556;2022-09-13T09:31:19;3.50;;;2.67;;
16922;SDS011;8578;50.938;13.556;2022-09-13T09:33:54;3.80;;;3.20;;
16922;SDS011;8578;50.938;13.556;2022-09-13T09:36:27;3.73;;;2.97;;
16922;SDS011;8578;50.938;13.556;2022-09-13T09:38:59;4.13;;;3.23;;
16922;SDS011;8578;50.938;13.556;2022-09-13T09:41:27;3.27;;;2.97;;
16922;SDS011;8578;50.938;13.556;2022-09-13T09:43:58;4.50;;;3.20;;
16922;SDS011;8578;50.938;13.556;2022-09-13T09:46:28;4.73;;;3.00;;
16922;SDS011;8578;50.938;13.556;2022-09-13T09:48:59;6.40;;;3.30;;
16922;SDS011;8578;50.938;13.556;2022-09-13T09:51:29;5.33;;;3.50;;
16922;SDS011;8578;50.938;13.556;2022-09-13T09:54:00;3.20;;;2.83;;
16922;SDS011;8578;50.938;13.556;2022-09-13T09:56:31;3.70;;;2.63;;
16922;SDS011;8578;50.938;13.556;2022-09-13T09:58:58;4.70;;;2.90;;
16922;SDS011;8578;50.938;13.556;2022-09-13T10:01:27;4.30;;;2.73;;
16922;SDS011;8578;50.938;13.556;2022-09-13T10:04:00;3.53;;;2.67;;
16922;SDS011;8578;50.938;13.556;2022-09-13T10:06:29;4.73;;;2.80;;
16922;SDS011;8578;50.938;13.556;2022-09-13T10:08:58;3.07;;;2.70;;
16922;SDS011;8578;50.938;13.556;2022-09-13T10:14:33;3.00;;;2.70;;
16922;SDS011;8578;50.938;13.556;2022-09-13T10:17:05;2.67;;;2.37;;
16922;SDS011;8578;50.938;13.556;2022-09-13T10:19:40;2.97;;;2.63;;
16922;SDS011;8578;50.938;13.556;2022-09-13T10:22:09;3.73;;;2.27;;
16922;SDS011;8578;50.938;13.556;2022-09-13T10:24:37;3.23;;;2.20;;
16922;SDS011;8578;50.938;13.556;2022-09-13T10:27:04;3.10;;;2.50;;
16922;SDS011;8578;50.938;13.556;2022-09-13T10:29:47;5.40;;;2.20;;
16922;SDS011;8578;50.938;13.556;2022-09-13T10:32:15;3.00;;;1.97;;
16922;SDS011;8578;50.938;13.556;2022-09-13T10:34:45;9.83;;;3.03;;
16922;SDS011;8578;50.938;13.556;2022-09-13T10:37:15;2.30;;;2.00;;
16922;SDS011;8578;50.938;13.556;2022-09-13T10:39:50;2.10;;;1.90;;
16922;SDS011;8578;50.938;13.556;2022-09-13T10:42:19;2.30;;;2.10;;
16922;SDS011;8578;50.938;13.556;2022-09-13T10:44:52;2.60;;;1.77;;
16922;SDS011;8578;50.938;13.556;2022-09-13T10:47:21;2.40;;;1.93;;
16922;SDS011;8578;50.938;13.556;2022-09-13T10:49:49;2.70;;;2.10;;
16922;SDS011;8578;50.938;13.556;2022-09-13T10:52:25;2.20;;;1.90;;
16922;SDS011;8578;50.938;13.556;2022-09-13T10:54:53;3.00;;;2.40;;
16922;SDS011;8578;50.938;13.556;2022-09-13T10:57:31;5.17;;;2.60;;
16922;SDS011;8578;50.938;13.556;2022-09-13T11:00:01;4.13;;;2.40;;
16922;SDS011;8578;50.938;13.556;2022-09-13T11:05:17;6.10;;;2.30;;
16922;SDS011;8578;50.938;13.556;2022-09-13T11:07:50;2.17;;;1.90;;
16922;SDS011;8578;50.938;13.556;2022-09-13T11:10:23;3.93;;;2.10;;
16922;SDS011;8578;50.938;13.556;2022-09-13T11:12:55;2.40;;;2.13;;
16922;SDS011;8578;50.938;13.556;2022-09-13T11:15:28;2.83;;;2.00;;
16922;SDS011;8578;50.938;13.556;2022-09-13T11:18:10;2.10;;;1.90;;
16922;SDS011;8578;50.938;13.556;2022-09-13T11:20:41;2.00;;;1.80;;
16922;SDS011;8578;50.938;13.556;2022-09-13T11:23:17;4.20;;;2.00;;
16922;SDS011;8578;50.938;13.556;2022-09-13T11:25:50;2.43;;;2.23;;
16922;SDS011;8578;50.938;13.556;2022-09-13T11:28:23;4.03;;;2.20;;
16922;SDS011;8578;50.938;13.556;2022-09-13T11:30:58;5.40;;;2.57;;
16922;SDS011;8578;50.938;13.556;2022-09-13T11:33:31;3.63;;;2.00;;
16922;SDS011;8578;50.938;13.556;2022-09-13T11:36:10;2.07;;;1.90;;
16922;SDS011;8578;50.938;13.556;2022-09-13T11:38:44;2.20;;;2.00;;
16922;SDS011;8578;50.938;13.556;2022-09-13T11:41:16;3.63;;;2.00;;
16922;SDS011;8578;50.938;13.556;2022-09-13T11:43:53;2.00;;;1.80;;
16922;SDS011;8578;50.938;13.556;2022-09-13T11:46:26;2.97;;;2.00;;
16922;SDS011;8578;50.938;13.556;2022-09-13T11:51:41;5.20;;;2.20;;
16922;SDS011;8578;50.938;13.556;2022-09-13T11:54:17;2.13;;;1.93;;
16922;SDS011;8578;50.938;13.556;2022-09-13T11:56:47;3.23;;;2.00;;
16922;SDS011;8578;50.938;13.556;2022-09-13T11:59:17;2.37;;;1.93;;
16922;SDS011;8578;50.938;13.556;2022-09-13T12:01:48;2.57;;;1.90;;
16922;SDS011;8578;50.938;13.556;2022-09-13T12:04:19;3.17;;;1.80;;
16922;SDS011;8578;50.938;13.556;2022-09-13T12:06:52;2.07;;;1.57;;
16922;SDS011;8578;50.938;13.556;2022-09-13T12:09:21;3.97;;;1.80;;
16922;SDS011;8578;50.938;13.556;2022-09-13T12:11:50;3.87;;;1.60;;
16922;SDS011;8578;50.938;13.556;2022-09-13T12:14:20;1.27;;;1.17;;
16922;SDS011;8578;50.938;13.556;2022-09-13T12:16:50;1.80;;;1.47;;
16922;SDS011;8578;50.938;13.556;2022-09-13T12:19:20;1.53;;;1.30;;
16922;SDS011;8578;50.938;13.556;2022-09-13T12:21:48;1.63;;;1.53;;
16922;SDS011;8578;50.938;13.556;2022-09-13T12:24:18;1.97;;;1.13;;
16922;SDS011;8578;50.938;13.556;2022-09-13T12:26:48;2.90;;;1.37;;
16922;SDS011;8578;50.938;13.556;2022-09-13T12:29:20;2.30;;;1.70;;
16922;SDS011;8578;50.938;13.556;2022-09-13T12:31:49;2.57;;;1.60;;
16922;SDS011;8578;50.938;13.556;2022-09-13T12:34:19;3.67;;;1.50;;
16922;SDS011;8578;50.938;13.556;2022-09-13T12:36:55;1.50;;;1.40;;
16922;SDS011;8578;50.938;13.556;2022-09-13T12:39:34;1.80;;;1.43;;
16922;SDS011;8578;50.938;13.556;2022-09-13T12:42:13;1.27;;;1.17;;
16922;SDS011;8578;50.938;13.556;2022-09-13T12:44:57;1.13;;;1.03;;
16922;SDS011;8578;50.938;13.556;2022-09-13T12:47:36;3.07;;;1.50;;
16922;SDS011;8578;50.938;13.556;2022-09-13T12:50:10;2.43;;;1.60;;
16922;SDS011;8578;50.938;13.556;2022-09-13T12:53:06;2.43;;;1.23;;
16922;SDS011;8578;50.938;13.556;2022-09-13T12:55:40;2.80;;;1.60;;
16922;SDS011;8578;50.938;13.556;2022-09-13T12:58:20;3.50;;;1.27;;
16922;SDS011;8578;50.938;13.556;2022-09-13T13:01:00;1.50;;;1.40;;
16922;SDS011;8578;50.938;13.556;2022-09-13T13:03:33;1.23;;;1.10;;
16922;SDS011;8578;50.938;13.556;2022-09-13T13:06:06;1.23;;;1.13;;
16922;SDS011;8578;50.938;13.556;2022-09-13T13:08:35;1.70;;;1.50;;
16922;SDS011;8578;50.938;13.556;2022-09-13T13:11:03;1.37;;;1.10;;
16922;SDS011;8578;50.938;13.556;2022-09-13T13:13:33;3.77;;;1.20;;
16922;SDS011;8578;50.938;13.556;2022-09-13T13:16:05;1.40;;;1.07;;
16922;SDS011;8578;50.938;13.556;2022-09-13T13:18:44;4.73;;;1.00;;
16922;SDS011;8578;50.938;13.556;2022-09-13T13:26:46;3.40;;;1.20;;
16922;SDS011;8578;50.938;13.556;2022-09-13T13:29:15;1.93;;;1.07;;
16922;SDS011;8578;50.938;13.556;2022-09-13T13:34:34;2.60;;;0.90;;
16922;SDS011;8578;50.938;13.556;2022-09-13T13:37:03;1.50;;;1.20;;
16922;SDS011;8578;50.938;13.556;2022-09-13T13:39:32;1.67;;;1.17;;
16922;SDS011;8578;50.938;13.556;2022-09-13T13:42:00;2.40;;;1.03;;
16922;SDS011;8578;50.938;13.556;2022-09-13T13:50:15;1.97;;;1.10;;
16922;SDS011;8578;50.938;13.556;2022-09-13T13:52:53;1.47;;;0.90;;
16922;SDS011;8578;50.938;13.556;2022-09-13T13:55:38;2.70;;;1.10;;
16922;SDS011;8578;50.938;13.556;2022-09-13T13:58:11;1.57;;;1.00;;
16922;SDS011;8578;50.938;13.556;2022-09-13T14:00:45;2.93;;;1.00;;
16922;SDS011;8578;50.938;13.556;2022-09-13T14:03:15;1.40;;;0.90;;
16922;SDS011;8578;50.938;13.556;2022-09-13T14:05:47;1.30;;;1.20;;
16922;SDS011;8578;50.938;13.556;2022-09-13T14:08:25;2.07;;;1.20;;
16922;SDS011;8578;50.938;13.556;2022-09-13T14:10:58;2.13;;;1.10;;
16922;SDS011;8578;50.938;13.556;2022-09-13T14:13:38;3.23;;;1.10;;
16922;SDS011;8578;50.938;13.556;2022-09-13T14:16:08;1.20;;;1.03;;
16922;SDS011;8578;50.938;13.556;2022-09-13T14:21:23;1.30;;;1.00;;
16922;SDS011;8578;50.938;13.556;2022-09-13T14:24:06;3.20;;;1.20;;
16922;SDS011;8578;50.938;13.556;2022-09-13T14:26:34;2.50;;;1.30;;
16922;SDS011;8578;50.938;13.556;2022-09-13T14:29:05;2.80;;;1.30;;
16922;SDS011;8578;50.938;13.556;2022-09-13T14:31:33;2.53;;;1.30;;
16922;SDS011;8578;50.938;13.556;2022-09-13T14:34:00;2.20;;;1.20;;
16922;SDS011;8578;50.938;13.556;2022-09-13T14:36:29;4.70;;;1.30;;
16922;SDS011;8578;50.938;13.556;2022-09-13T14:38:57;1.40;;;1.20;;
16922;SDS011;8578;50.938;13.556;2022-09-13T14:41:29;2.37;;;1.30;;
16922;SDS011;8578;50.938;13.556;2022-09-13T14:46:48;2.33;;;1.20;;
16922;SDS011;8578;50.938;13.556;2022-09-13T14:49:19;1.47;;;1.30;;
16922;SDS011;8578;50.938;13.556;2022-09-13T14:51:50;2.77;;;1.30;;
16922;SDS011;8578;50.938;13.556;2022-09-13T14:54:23;1.87;;;1.10;;
16922;SDS011;8578;50.938;13.556;2022-09-13T14:56:55;2.40;;;1.37;;
16922;SDS011;8578;50.938;13.556;2022-09-13T14:59:25;3.00;;;1.30;;
16922;SDS011;8578;50.938;13.556;2022-09-13T15:01:52;1.90;;;1.23;;
16922;SDS011;8578;50.938;13.556;2022-09-13T15:04:26;1.63;;;1.50;;
16922;SDS011;8578;50.938;13.556;2022-09-13T15:07:08;3.40;;;1.60;;
16922;SDS011;8578;50.938;13.556;2022-09-13T15:09:35;1.47;;;1.37;;
16922;SDS011;8578;50.938;13.556;2022-09-13T15:12:04;1.40;;;1.30;;
16922;SDS011;8578;50.938;13.556;2022-09-13T15:14:32;2.87;;;1.70;;
16922;SDS011;8578;50.938;13.556;2022-09-13T15:17:06;1.80;;;1.30;;
16922;SDS011;8578;50.938;13.556;2022-09-13T15:19:35;2.23;;;1.43;;
16922;SDS011;8578;50.938;13.556;2022-09-13T15:22:03;3.13;;;1.30;;
16922;SDS011;8578;50.938;13.556;2022-09-13T15:24:32;2.00;;;1.30;;
16922;SDS011;8578;50.938;13.556;2022-09-13T15:27:01;1.50;;;1.40;;
16922;SDS011;8578;50.938;13.556;2022-09-13T15:29:28;4.67;;;1.90;;
16922;SDS011;8578;50.938;13.556;2022-09-13T15:32:00;2.50;;;1.47;;
16922;SDS011;8578;50.938;13.556;2022-09-13T15:34:27;1.83;;;1.33;;
16922;SDS011;8578;50.938;13.556;2022-09-13T15:37:06;1.80;;;1.30;;
16922;SDS011;8578;50.938;13.556;2022-09-13T15:39:45;1.90;;;1.57;;